sensor_id;sensor_type;location;lat;lon;timestamp;P1;P2;P0
32503;PMS5003;18953;45.930;13.640;2023-02-14T00:02:09;47;42;
32503;PMS5003;18953;45.930;13.640;2023-02-14T00:07:26;67;55;
32503;PMS5003;18953;45.930;13.640;2023-02-14T00:12:42;58;51;
32503;PMS5003;18953;45.930;13.640;2023-02-14T00:17:59;55;49;
32503;PMS5003;18953;45.930;13.640;2023-02-14T00:23:15;53;48;
32503;PMS5003;18953;45.930;13.640;2023-02-14T00:28:32;53;45;
32503;PMS5003;18953;45.930;13.640;2023-02-14T00:33:48;64;52;
32503;PMS5003;18953;45.930;13.640;2023-02-14T00:39:05;60;50;
32503;PMS5003;18953;45.930;13.640;2023-02-14T00:44:22;50;45;
32503;PMS5003;18953;45.930;13.640;2023-02-14T00:49:38;47;40;
32503;PMS5003;18953;45.930;13.640;2023-02-14T00:54:55;53;45;
32503;PMS5003;18953;45.930;13.640;2023-02-14T01:00:11;42;41;
32503;PMS5003;18953;45.930;13.640;2023-02-14T01:05:27;47;39;
32503;PMS5003;18953;45.930;13.640;2023-02-14T01:10:44;49;44;
32503;PMS5003;18953;45.930;13.640;2023-02-14T01:16:03;47;39;
32503;PMS5003;18953;45.930;13.640;2023-02-14T01:21:18;46;43;
32503;PMS5003;18953;45.930;13.640;2023-02-14T01:26:34;35;33;
32503;PMS5003;18953;45.930;13.640;2023-02-14T01:31:50;43;33;
32503;PMS5003;18953;45.930;13.640;2023-02-14T01:37:07;41;36;
32503;PMS5003;18953;45.930;13.640;2023-02-14T01:42:23;40;38;
32503;PMS5003;18953;45.930;13.640;2023-02-14T01:47:40;33;27;
32503;PMS5003;18953;45.930;13.640;2023-02-14T01:52:57;37;32;
32503;PMS5003;18953;45.930;13.640;2023-02-14T01:58:13;43;38;
32503;PMS5003;18953;45.930;13.640;2023-02-14T02:03:30;37;32;
32503;PMS5003;18953;45.930;13.640;2023-02-14T02:08:47;34;32;
32503;PMS5003;18953;45.930;13.640;2023-02-14T02:14:02;37;32;
32503;PMS5003;18953;45.930;13.640;2023-02-14T02:19:26;37;33;
32503;PMS5003;18953;45.930;13.640;2023-02-14T02:24:36;42;37;
32503;PMS5003;18953;45.930;13.640;2023-02-14T02:29:57;36;35;
32503;PMS5003;18953;45.930;13.640;2023-02-14T02:35:16;41;36;
32503;PMS5003;18953;45.930;13.640;2023-02-14T02:45:43;47;42;
32503;PMS5003;18953;45.930;13.640;2023-02-14T02:50:59;57;47;
32503;PMS5003;18953;45.930;13.640;2023-02-14T02:56:16;37;33;
32503;PMS5003;18953;45.930;13.640;2023-02-14T03:01:32;50;40;
32503;PMS5003;18953;45.930;13.640;2023-02-14T03:06:48;48;42;
32503;PMS5003;18953;45.930;13.640;2023-02-14T03:12:06;39;36;
32503;PMS5003;18953;45.930;13.640;2023-02-14T03:17:21;38;36;
32503;PMS5003;18953;45.930;13.640;2023-02-14T03:22:40;43;38;
32503;PMS5003;18953;45.930;13.640;2023-02-14T03:27:55;45;38;
32503;PMS5003;18953;45.930;13.640;2023-02-14T03:33:11;41;39;
32503;PMS5003;18953;45.930;13.640;2023-02-14T03:38:28;61;50;
32503;PMS5003;18953;45.930;13.640;2023-02-14T03:43:44;46;40;
32503;PMS5003;18953;45.930;13.640;2023-02-14T03:49:01;45;41;
32503;PMS5003;18953;45.930;13.640;2023-02-14T03:54:17;56;48;
32503;PMS5003;18953;45.930;13.640;2023-02-14T03:59:33;30;28;
32503;PMS5003;18953;45.930;13.640;2023-02-14T04:04:49;36;32;
32503;PMS5003;18953;45.930;13.640;2023-02-14T04:10:06;40;37;
32503;PMS5003;18953;45.930;13.640;2023-02-14T04:15:22;39;34;
32503;PMS5003;18953;45.930;13.640;2023-02-14T04:20:38;41;35;
32503;PMS5003;18953;45.930;13.640;2023-02-14T04:25:55;53;44;
32503;PMS5003;18953;45.930;13.640;2023-02-14T04:31:12;34;30;
32503;PMS5003;18953;45.930;13.640;2023-02-14T04:36:28;36;32;
32503;PMS5003;18953;45.930;13.640;2023-02-14T04:41:45;40;39;
32503;PMS5003;18953;45.930;13.640;2023-02-14T04:47:01;31;29;
32503;PMS5003;18953;45.930;13.640;2023-02-14T04:52:18;36;32;
32503;PMS5003;18953;45.930;13.640;2023-02-14T04:57:35;41;35;
32503;PMS5003;18953;45.930;13.640;2023-02-14T05:02:51;39;35;
32503;PMS5003;18953;45.930;13.640;2023-02-14T05:08:07;49;41;
32503;PMS5003;18953;45.930;13.640;2023-02-14T05:13:24;43;39;
32503;PMS5003;18953;45.930;13.640;2023-02-14T05:18:40;32;28;
32503;PMS5003;18953;45.930;13.640;2023-02-14T05:23:57;36;33;
32503;PMS5003;18953;45.930;13.640;2023-02-14T05:29:14;40;35;
32503;PMS5003;18953;45.930;13.640;2023-02-14T05:34:31;44;39;
32503;PMS5003;18953;45.930;13.640;2023-02-14T05:39:47;29;27;
32503;PMS5003;18953;45.930;13.640;2023-02-14T05:45:04;30;27;
32503;PMS5003;18953;45.930;13.640;2023-02-14T05:50:20;54;48;
32503;PMS5003;18953;45.930;13.640;2023-02-14T05:55:37;34;30;
32503;PMS5003;18953;45.930;13.640;2023-02-14T06:00:54;45;41;
32503;PMS5003;18953;45.930;13.640;2023-02-14T06:06:10;40;36;
32503;PMS5003;18953;45.930;13.640;2023-02-14T06:11:27;36;32;
32503;PMS5003;18953;45.930;13.640;2023-02-14T06:16:44;43;36;
32503;PMS5003;18953;45.930;13.640;2023-02-14T06:22:00;38;36;
32503;PMS5003;18953;45.930;13.640;2023-02-14T06:27:16;48;40;
32503;PMS5003;18953;45.930;13.640;2023-02-14T06:32:33;41;36;
32503;PMS5003;18953;45.930;13.640;2023-02-14T06:37:49;44;40;
32503;PMS5003;18953;45.930;13.640;2023-02-14T06:43:06;58;51;
32503;PMS5003;18953;45.930;13.640;2023-02-14T06:48:23;82;65;
32503;PMS5003;18953;45.930;13.640;2023-02-14T06:53:39;89;69;
32503;PMS5003;18953;45.930;13.640;2023-02-14T06:58:56;74;62;
32503;PMS5003;18953;45.930;13.640;2023-02-14T07:04:13;72;57;
32503;PMS5003;18953;45.930;13.640;2023-02-14T07:09:29;71;57;
32503;PMS5003;18953;45.930;13.640;2023-02-14T07:14:46;70;54;
32503;PMS5003;18953;45.930;13.640;2023-02-14T07:20:03;104;79;
32503;PMS5003;18953;45.930;13.640;2023-02-14T07:25:19;94;73;
32503;PMS5003;18953;45.930;13.640;2023-02-14T07:30:36;85;68;
32503;PMS5003;18953;45.930;13.640;2023-02-14T07:35:53;93;72;
32503;PMS5003;18953;45.930;13.640;2023-02-14T07:41:09;90;70;
32503;PMS5003;18953;45.930;13.640;2023-02-14T07:46:26;83;66;
32503;PMS5003;18953;45.930;13.640;2023-02-14T07:51:43;97;73;
32503;PMS5003;18953;45.930;13.640;2023-02-14T07:57:00;107;90;
32503;PMS5003;18953;45.930;13.640;2023-02-14T08:02:17;98;75;
32503;PMS5003;18953;45.930;13.640;2023-02-14T08:07:34;91;71;
32503;PMS5003;18953;45.930;13.640;2023-02-14T08:12:50;68;52;
32503;PMS5003;18953;45.930;13.640;2023-02-14T08:18:06;49;42;
32503;PMS5003;18953;45.930;13.640;2023-02-14T08:23:23;54;41;
32503;PMS5003;18953;45.930;13.640;2023-02-14T08:28:40;61;50;
32503;PMS5003;18953;45.930;13.640;2023-02-14T08:33:56;57;46;
32503;PMS5003;18953;45.930;13.640;2023-02-14T08:39:13;60;49;
32503;PMS5003;18953;45.930;13.640;2023-02-14T08:44:30;50;41;
32503;PMS5003;18953;45.930;13.640;2023-02-14T08:49:46;51;42;
32503;PMS5003;18953;45.930;13.640;2023-02-14T08:55:03;56;46;
32503;PMS5003;18953;45.930;13.640;2023-02-14T09:00:20;55;44;
32503;PMS5003;18953;45.930;13.640;2023-02-14T09:05:36;55;45;
32503;PMS5003;18953;45.930;13.640;2023-02-14T09:10:53;48;39;
32503;PMS5003;18953;45.930;13.640;2023-02-14T09:16:10;43;35;
32503;PMS5003;18953;45.930;13.640;2023-02-14T09:21:26;39;34;
32503;PMS5003;18953;45.930;13.640;2023-02-14T09:26:43;40;34;
32503;PMS5003;18953;45.930;13.640;2023-02-14T09:31:59;41;34;
32503;PMS5003;18953;45.930;13.640;2023-02-14T09:37:15;36;32;
32503;PMS5003;18953;45.930;13.640;2023-02-14T09:42:35;34;30;
32503;PMS5003;18953;45.930;13.640;2023-02-14T09:47:49;31;29;
32503;PMS5003;18953;45.930;13.640;2023-02-14T09:53:07;35;31;
32503;PMS5003;18953;45.930;13.640;2023-02-14T09:58:25;34;31;
32503;PMS5003;18953;45.930;13.640;2023-02-14T10:03:47;28;26;
32503;PMS5003;18953;45.930;13.640;2023-02-14T10:08:57;31;28;
32503;PMS5003;18953;45.930;13.640;2023-02-14T10:14:13;30;26;
32503;PMS5003;18953;45.930;13.640;2023-02-14T10:19:30;25;25;
32503;PMS5003;18953;45.930;13.640;2023-02-14T10:24:45;22;20;
32503;PMS5003;18953;45.930;13.640;2023-02-14T10:30:01;22;20;
32503;PMS5003;18953;45.930;13.640;2023-02-14T10:35:21;26;23;
32503;PMS5003;18953;45.930;13.640;2023-02-14T10:40:39;23;22;
32503;PMS5003;18953;45.930;13.640;2023-02-14T10:45:52;34;28;
32503;PMS5003;18953;45.930;13.640;2023-02-14T10:51:10;26;24;
32503;PMS5003;18953;45.930;13.640;2023-02-14T10:56:24;22;21;
32503;PMS5003;18953;45.930;13.640;2023-02-14T11:01:38;24;22;
32503;PMS5003;18953;45.930;13.640;2023-02-14T11:06:55;21;19;
32503;PMS5003;18953;45.930;13.640;2023-02-14T11:12:11;24;21;
32503;PMS5003;18953;45.930;13.640;2023-02-14T11:17:29;20;20;
32503;PMS5003;18953;45.930;13.640;2023-02-14T11:22:44;19;18;
32503;PMS5003;18953;45.930;13.640;2023-02-14T11:28:01;24;19;
32503;PMS5003;18953;45.930;13.640;2023-02-14T11:33:28;20;17;
32503;PMS5003;18953;45.930;13.640;2023-02-14T11:38:34;21;17;
32503;PMS5003;18953;45.930;13.640;2023-02-14T11:43:49;16;15;
32503;PMS5003;18953;45.930;13.640;2023-02-14T11:49:22;15;13;
32503;PMS5003;18953;45.930;13.640;2023-02-14T11:54:31;16;14;
32503;PMS5003;18953;45.930;13.640;2023-02-14T11:59:39;17;15;
32503;PMS5003;18953;45.930;13.640;2023-02-14T12:04:55;24;21;
32503;PMS5003;18953;45.930;13.640;2023-02-14T12:10:16;16;13;
32503;PMS5003;18953;45.930;13.640;2023-02-14T12:15:29;16;16;
32503;PMS5003;18953;45.930;13.640;2023-02-14T12:20:44;18;16;
32503;PMS5003;18953;45.930;13.640;2023-02-14T12:26:01;17;16;
32503;PMS5003;18953;45.930;13.640;2023-02-14T12:31:16;17;16;
32503;PMS5003;18953;45.930;13.640;2023-02-14T12:36:45;18;15;
32503;PMS5003;18953;45.930;13.640;2023-02-14T12:42:02;19;18;
32503;PMS5003;18953;45.930;13.640;2023-02-14T12:47:17;20;20;
32503;PMS5003;18953;45.930;13.640;2023-02-14T12:52:38;20;18;
32503;PMS5003;18953;45.930;13.640;2023-02-14T12:57:50;20;19;
32503;PMS5003;18953;45.930;13.640;2023-02-14T13:03:10;22;19;
32503;PMS5003;18953;45.930;13.640;2023-02-14T13:08:25;23;20;
32503;PMS5003;18953;45.930;13.640;2023-02-14T13:13:42;26;20;
32503;PMS5003;18953;45.930;13.640;2023-02-14T13:18:56;25;21;
32503;PMS5003;18953;45.930;13.640;2023-02-14T13:24:13;26;20;
32503;PMS5003;18953;45.930;13.640;2023-02-14T13:29:40;24;20;
32503;PMS5003;18953;45.930;13.640;2023-02-14T13:34:45;25;19;
32503;PMS5003;18953;45.930;13.640;2023-02-14T13:40:02;22;20;
32503;PMS5003;18953;45.930;13.640;2023-02-14T13:45:49;22;19;
32503;PMS5003;18953;45.930;13.640;2023-02-14T13:50:33;25;20;
32503;PMS5003;18953;45.930;13.640;2023-02-14T13:55:49;26;22;
32503;PMS5003;18953;45.930;13.640;2023-02-14T14:01:26;25;21;
32503;PMS5003;18953;45.930;13.640;2023-02-14T14:06:22;24;20;
32503;PMS5003;18953;45.930;13.640;2023-02-14T14:11:48;20;18;
32503;PMS5003;18953;45.930;13.640;2023-02-14T14:16:55;20;18;
32503;PMS5003;18953;45.930;13.640;2023-02-14T14:22:12;23;20;
32503;PMS5003;18953;45.930;13.640;2023-02-14T14:27:29;32;26;
32503;PMS5003;18953;45.930;13.640;2023-02-14T14:32:44;29;26;
32503;PMS5003;18953;45.930;13.640;2023-02-14T14:38:00;20;19;
32503;PMS5003;18953;45.930;13.640;2023-02-14T14:43:19;28;25;
32503;PMS5003;18953;45.930;13.640;2023-02-14T14:48:36;22;20;
32503;PMS5003;18953;45.930;13.640;2023-02-14T14:53:50;21;19;
32503;PMS5003;18953;45.930;13.640;2023-02-14T14:59:27;20;19;
32503;PMS5003;18953;45.930;13.640;2023-02-14T15:04:24;24;20;
32503;PMS5003;18953;45.930;13.640;2023-02-14T15:09:38;28;24;
32503;PMS5003;18953;45.930;13.640;2023-02-14T15:14:55;22;20;
32503;PMS5003;18953;45.930;13.640;2023-02-14T15:20:13;34;30;
32503;PMS5003;18953;45.930;13.640;2023-02-14T15:25:30;31;28;
32503;PMS5003;18953;45.930;13.640;2023-02-14T15:30:44;30;26;
32503;PMS5003;18953;45.930;13.640;2023-02-14T15:36:01;30;25;
32503;PMS5003;18953;45.930;13.640;2023-02-14T15:41:17;32;27;
32503;PMS5003;18953;45.930;13.640;2023-02-14T15:46:34;31;24;
32503;PMS5003;18953;45.930;13.640;2023-02-14T15:51:50;40;34;
32503;PMS5003;18953;45.930;13.640;2023-02-14T15:57:15;38;31;
32503;PMS5003;18953;45.930;13.640;2023-02-14T16:02:26;43;36;
32503;PMS5003;18953;45.930;13.640;2023-02-14T16:07:40;43;34;
32503;PMS5003;18953;45.930;13.640;2023-02-14T16:12:57;31;27;
32503;PMS5003;18953;45.930;13.640;2023-02-14T16:18:16;39;32;
32503;PMS5003;18953;45.930;13.640;2023-02-14T16:23:29;41;35;
32503;PMS5003;18953;45.930;13.640;2023-02-14T16:28:45;41;36;
32503;PMS5003;18953;45.930;13.640;2023-02-14T16:34:03;41;35;
32503;PMS5003;18953;45.930;13.640;2023-02-14T16:39:19;38;34;
32503;PMS5003;18953;45.930;13.640;2023-02-14T16:44:35;49;40;
32503;PMS5003;18953;45.930;13.640;2023-02-14T16:49:52;62;47;
32503;PMS5003;18953;45.930;13.640;2023-02-14T16:55:12;52;43;
32503;PMS5003;18953;45.930;13.640;2023-02-14T17:00:24;49;41;
32503;PMS5003;18953;45.930;13.640;2023-02-14T17:05:41;51;41;
32503;PMS5003;18953;45.930;13.640;2023-02-14T17:10:57;42;38;
32503;PMS5003;18953;45.930;13.640;2023-02-14T17:16:13;59;45;
32503;PMS5003;18953;45.930;13.640;2023-02-14T17:21:30;47;38;
32503;PMS5003;18953;45.930;13.640;2023-02-14T17:26:46;60;49;
32503;PMS5003;18953;45.930;13.640;2023-02-14T17:32:03;61;46;
32503;PMS5003;18953;45.930;13.640;2023-02-14T17:37:19;76;60;
32503;PMS5003;18953;45.930;13.640;2023-02-14T17:42:37;85;68;
32503;PMS5003;18953;45.930;13.640;2023-02-14T17:47:54;83;67;
32503;PMS5003;18953;45.930;13.640;2023-02-14T17:53:10;90;75;
32503;PMS5003;18953;45.930;13.640;2023-02-14T17:58:27;86;67;
32503;PMS5003;18953;45.930;13.640;2023-02-14T18:03:44;80;62;
32503;PMS5003;18953;45.930;13.640;2023-02-14T18:09:03;106;93;
32503;PMS5003;18953;45.930;13.640;2023-02-14T18:14:18;95;78;
32503;PMS5003;18953;45.930;13.640;2023-02-14T18:19:34;92;74;
32503;PMS5003;18953;45.930;13.640;2023-02-14T18:24:51;76;60;
32503;PMS5003;18953;45.930;13.640;2023-02-14T18:30:07;79;60;
32503;PMS5003;18953;45.930;13.640;2023-02-14T18:35:24;80;62;
32503;PMS5003;18953;45.930;13.640;2023-02-14T18:40:41;107;92;
32503;PMS5003;18953;45.930;13.640;2023-02-14T18:46:00;97;79;
32503;PMS5003;18953;45.930;13.640;2023-02-14T18:51:15;100;84;
32503;PMS5003;18953;45.930;13.640;2023-02-14T18:56:32;100;86;
32503;PMS5003;18953;45.930;13.640;2023-02-14T19:01:48;97;79;
32503;PMS5003;18953;45.930;13.640;2023-02-14T19:07:04;93;71;
32503;PMS5003;18953;45.930;13.640;2023-02-14T19:12:21;111;97;
32503;PMS5003;18953;45.930;13.640;2023-02-14T19:17:38;94;75;
32503;PMS5003;18953;45.930;13.640;2023-02-14T19:22:55;94;77;
32503;PMS5003;18953;45.930;13.640;2023-02-14T19:28:12;103;91;
32503;PMS5003;18953;45.930;13.640;2023-02-14T19:33:29;87;68;
32503;PMS5003;18953;45.930;13.640;2023-02-14T19:38:46;89;69;
32503;PMS5003;18953;45.930;13.640;2023-02-14T19:44:03;87;68;
32503;PMS5003;18953;45.930;13.640;2023-02-14T19:49:18;96;74;
32503;PMS5003;18953;45.930;13.640;2023-02-14T19:54:36;95;76;
32503;PMS5003;18953;45.930;13.640;2023-02-14T19:59:52;93;74;
32503;PMS5003;18953;45.930;13.640;2023-02-14T20:05:09;81;62;
32503;PMS5003;18953;45.930;13.640;2023-02-14T20:10:25;83;66;
32503;PMS5003;18953;45.930;13.640;2023-02-14T20:15:42;93;71;
32503;PMS5003;18953;45.930;13.640;2023-02-14T20:20:58;102;77;
32503;PMS5003;18953;45.930;13.640;2023-02-14T20:26:16;92;71;
32503;PMS5003;18953;45.930;13.640;2023-02-14T20:31:32;81;63;
32503;PMS5003;18953;45.930;13.640;2023-02-14T20:36:49;81;62;
32503;PMS5003;18953;45.930;13.640;2023-02-14T20:42:06;91;69;
32503;PMS5003;18953;45.930;13.640;2023-02-14T20:47:23;95;74;
32503;PMS5003;18953;45.930;13.640;2023-02-14T20:52:40;116;97;
32503;PMS5003;18953;45.930;13.640;2023-02-14T20:57:57;109;90;
32503;PMS5003;18953;45.930;13.640;2023-02-14T21:03:14;98;79;
32503;PMS5003;18953;45.930;13.640;2023-02-14T21:08:31;89;67;
32503;PMS5003;18953;45.930;13.640;2023-02-14T21:13:48;94;72;
32503;PMS5003;18953;45.930;13.640;2023-02-14T21:19:05;91;70;
32503;PMS5003;18953;45.930;13.640;2023-02-14T21:24:21;88;69;
32503;PMS5003;18953;45.930;13.640;2023-02-14T21:29:37;85;64;
32503;PMS5003;18953;45.930;13.640;2023-02-14T21:34:54;79;59;
32503;PMS5003;18953;45.930;13.640;2023-02-14T21:40:11;90;64;
32503;PMS5003;18953;45.930;13.640;2023-02-14T21:45:27;97;72;
32503;PMS5003;18953;45.930;13.640;2023-02-14T21:50:44;83;64;
32503;PMS5003;18953;45.930;13.640;2023-02-14T21:56:02;82;62;
32503;PMS5003;18953;45.930;13.640;2023-02-14T22:01:18;78;60;
32503;PMS5003;18953;45.930;13.640;2023-02-14T22:06:34;72;59;
32503;PMS5003;18953;45.930;13.640;2023-02-14T22:11:51;80;62;
32503;PMS5003;18953;45.930;13.640;2023-02-14T22:17:07;77;60;
32503;PMS5003;18953;45.930;13.640;2023-02-14T22:22:24;81;62;
32503;PMS5003;18953;45.930;13.640;2023-02-14T22:27:41;73;57;
32503;PMS5003;18953;45.930;13.640;2023-02-14T22:32:57;72;59;
32503;PMS5003;18953;45.930;13.640;2023-02-14T22:38:14;75;58;
32503;PMS5003;18953;45.930;13.640;2023-02-14T22:43:31;74;55;
32503;PMS5003;18953;45.930;13.640;2023-02-14T22:48:47;73;60;
32503;PMS5003;18953;45.930;13.640;2023-02-14T22:54:04;62;50;
32503;PMS5003;18953;45.930;13.640;2023-02-14T22:59:21;70;52;
32503;PMS5003;18953;45.930;13.640;2023-02-14T23:04:37;62;51;
32503;PMS5003;18953;45.930;13.640;2023-02-14T23:09:53;62;50;
32503;PMS5003;18953;45.930;13.640;2023-02-14T23:15:09;54;46;
32503;PMS5003;18953;45.930;13.640;2023-02-14T23:20:26;56;45;
32503;PMS5003;18953;45.930;13.640;2023-02-14T23:25:42;58;47;
32503;PMS5003;18953;45.930;13.640;2023-02-14T23:30:59;60;48;
32503;PMS5003;18953;45.930;13.640;2023-02-14T23:36:16;61;48;
32503;PMS5003;18953;45.930;13.640;2023-02-14T23:41:32;53;46;
32503;PMS5003;18953;45.930;13.640;2023-02-14T23:46:50;61;47;
32503;PMS5003;18953;45.930;13.640;2023-02-14T23:52:06;52;45;
32503;PMS5003;18953;45.930;13.640;2023-02-14T23:57:22;47;43;
